Time;durP1;ratioP1;P1;durP2;ratioP2;P2;SDS_P1;SDS_P2;PMS_P1;PMS_P2;Temp;Humidity;BMP_temperature;BMP_pressure;BME280_temperature;BME280_humidity;BME280_pressure;Samples;Min_cycle;Max_cycle;Signal;HPM_P1;HPM_P2
2022/06/30 00:02:28;;;;;;;1.63;1.52;;;;;;;;;;5013477;28;20439;-80
2022/06/30 00:04:53;;;;;;;1.83;1.30;;;;;;;;;;5012261;28;20470;-80
2022/06/30 00:07:21;;;;;;;2.42;2.15;;;;;;;;;;5010532;28;20040;-81
2022/06/30 00:09:49;;;;;;;2.05;1.48;;;;;;;;;;5011311;28;20037;-79
2022/06/30 00:12:17;;;;;;;2.13;1.85;;;;;;;;;;5013234;28;20018;-80
2022/06/30 00:14:42;;;;;;;1.55;1.20;;;;;;;;;;5012605;28;20033;-80
2022/06/30 00:17:08;;;;;;;1.85;1.23;;;;;;;;;;5012091;28;20030;-78
2022/06/30 00:19:34;;;;;;;1.95;1.27;;;;;;;;;;5010948;28;20029;-80
2022/06/30 00:21:59;;;;;;;2.42;1.85;;;;;;;;;;5011049;28;20036;-77
2022/06/30 00:24:30;;;;;;;2.05;1.67;;;;;;;;;;5011332;28;20160;-80
2022/06/30 00:26:55;;;;;;;3.70;1.90;;;;;;;;;;5015729;28;20021;-79
2022/06/30 00:29:20;;;;;;;3.05;1.70;;;;;;;;;;5014313;28;20420;-79
2022/06/30 00:31:46;;;;;;;2.58;2.35;;;;;;;;;;5017315;28;20025;-79
2022/06/30 00:34:11;;;;;;;3.00;1.52;;;;;;;;;;5016657;28;20036;-79
2022/06/30 00:36:39;;;;;;;2.65;1.98;;;;;;;;;;5016791;28;20038;-80
2022/06/30 00:39:04;;;;;;;3.05;2.28;;;;;;;;;;5019318;28;20041;-79
2022/06/30 00:41:30;;;;;;;2.53;2.10;;;;;;;;;;5020015;28;20034;-79
2022/06/30 00:43:55;;;;;;;2.47;1.77;;;;;;;;;;5016238;28;20026;-80
2022/06/30 00:46:22;;;;;;;2.47;2.25;;;;;;;;;;5024373;28;20040;-80
2022/06/30 00:48:49;;;;;;;2.13;1.52;;;;;;;;;;5014501;28;20041;-79
2022/06/30 00:51:16;;;;;;;3.28;1.80;;;;;;;;;;5018207;28;20445;-80
2022/06/30 00:53:44;;;;;;;4.20;1.17;;;;;;;;;;5016528;28;20045;-78
2022/06/30 00:56:09;;;;;;;3.33;2.25;;;;;;;;;;5020337;28;20362;-80
2022/06/30 00:58:40;;;;;;;2.40;1.55;;;;;;;;;;5013923;28;20030;-76
2022/06/30 01:01:12;;;;;;;2.53;2.00;;;;;;;;;;5017817;28;20026;-79
2022/06/30 01:03:38;;;;;;;4.50;2.00;;;;;;;;;;5015587;28;20029;-80
2022/06/30 01:06:05;;;;;;;2.05;1.85;;;;;;;;;;5014951;28;20030;-78
2022/06/30 01:08:31;;;;;;;2.03;1.80;;;;;;;;;;5014299;28;20025;-79
2022/06/30 01:13:43;;;;;;;4.57;1.77;;;;;;;;;;5014968;28;20088;-80
2022/06/30 01:16:10;;;;;;;2.40;1.65;;;;;;;;;;5023570;28;20037;-77
2022/06/30 01:18:35;;;;;;;2.67;2.22;;;;;;;;;;5031385;28;20038;-80
2022/06/30 01:21:01;;;;;;;3.00;2.47;;;;;;;;;;5015112;28;20045;-80
2022/06/30 01:23:26;;;;;;;4.45;2.22;;;;;;;;;;5014459;28;20486;-80
2022/06/30 01:25:52;;;;;;;1.50;1.40;;;;;;;;;;5022177;28;20341;-80
2022/06/30 01:28:20;;;;;;;2.70;2.33;;;;;;;;;;5017272;28;20013;-78
2022/06/30 01:30:45;;;;;;;2.83;2.28;;;;;;;;;;5015695;28;20036;-80
2022/06/30 01:33:11;;;;;;;2.78;2.30;;;;;;;;;;5015634;28;20386;-80
2022/06/30 01:35:37;;;;;;;1.60;1.50;;;;;;;;;;5011727;28;20431;-76
2022/06/30 01:38:02;;;;;;;2.78;2.00;;;;;;;;;;5006992;28;20451;-76
2022/06/30 01:40:35;;;;;;;1.67;1.58;;;;;;;;;;5013317;28;20080;-75
2022/06/30 01:43:11;;;;;;;3.15;2.42;;;;;;;;;;5015342;28;20026;-75
2022/06/30 01:45:37;;;;;;;1.98;1.83;;;;;;;;;;5015678;28;20098;-75
2022/06/30 01:48:03;;;;;;;3.90;2.38;;;;;;;;;;5013359;28;20029;-76
2022/06/30 01:50:32;;;;;;;4.82;2.85;;;;;;;;;;5020358;28;20030;-75
2022/06/30 01:52:58;;;;;;;4.43;2.67;;;;;;;;;;5004628;28;20030;-76
2022/06/30 01:55:26;;;;;;;3.58;2.53;;;;;;;;;;5014835;28;20041;-76
2022/06/30 01:57:51;;;;;;;4.05;2.15;;;;;;;;;;5015640;28;20094;-75
2022/06/30 02:00:20;;;;;;;1.98;1.77;;;;;;;;;;5015060;28;20109;-75
2022/06/30 02:02:46;;;;;;;2.05;1.88;;;;;;;;;;5014200;28;20026;-75
2022/06/30 02:05:12;;;;;;;2.40;2.17;;;;;;;;;;5013706;28;20143;-75
2022/06/30 02:07:39;;;;;;;2.95;1.60;;;;;;;;;;5006239;28;20399;-75
2022/06/30 02:10:09;;;;;;;2.30;1.83;;;;;;;;;;5015503;28;20037;-75
2022/06/30 02:12:46;;;;;;;2.70;2.22;;;;;;;;;;5014012;28;20026;-75
2022/06/30 02:15:21;;;;;;;2.63;1.77;;;;;;;;;;5003142;28;20030;-76
2022/06/30 02:17:53;;;;;;;3.08;1.58;;;;;;;;;;5012421;28;20022;-76
2022/06/30 02:20:23;;;;;;;3.22;2.20;;;;;;;;;;5016783;28;20017;-77
2022/06/30 02:22:51;;;;;;;2.20;1.75;;;;;;;;;;5035364;28;20025;-76
2022/06/30 02:25:16;;;;;;;2.05;1.83;;;;;;;;;;5018923;28;20447;-76
2022/06/30 02:27:41;;;;;;;6.95;2.58;;;;;;;;;;5014069;28;20052;-76
2022/06/30 02:30:07;;;;;;;2.17;2.03;;;;;;;;;;5013879;28;20040;-76
2022/06/30 02:32:33;;;;;;;1.80;0.98;;;;;;;;;;5013610;28;20113;-76
2022/06/30 02:34:58;;;;;;;1.60;1.38;;;;;;;;;;5014502;28;20044;-75
2022/06/30 02:37:23;;;;;;;1.98;1.77;;;;;;;;;;5014484;28;20497;-76
2022/06/30 02:39:49;;;;;;;4.60;2.60;;;;;;;;;;5019243;28;20083;-76
2022/06/30 02:42:15;;;;;;;3.95;2.10;;;;;;;;;;5016990;28;20030;-76
2022/06/30 02:44:40;;;;;;;1.33;1.23;;;;;;;;;;5013012;28;20109;-75
2022/06/30 02:47:06;;;;;;;2.13;1.80;;;;;;;;;;5026035;28;20072;-76
2022/06/30 02:49:31;;;;;;;3.75;1.92;;;;;;;;;;5013688;28;20116;-75
2022/06/30 02:52:01;;;;;;;1.80;1.67;;;;;;;;;;5018658;28;20029;-76
2022/06/30 02:54:29;;;;;;;1.52;1.42;;;;;;;;;;5016102;28;20113;-76
2022/06/30 02:56:56;;;;;;;2.90;2.10;;;;;;;;;;5013821;28;20029;-76
2022/06/30 02:59:22;;;;;;;2.17;1.98;;;;;;;;;;5013173;28;20080;-75
2022/06/30 03:01:47;;;;;;;5.10;2.05;;;;;;;;;;5017775;28;20347;-76
2022/06/30 03:04:12;;;;;;;2.55;1.98;;;;;;;;;;5017982;28;20025;-76
2022/06/30 03:06:38;;;;;;;2.78;2.15;;;;;;;;;;5024527;28;20117;-76
2022/06/30 03:09:03;;;;;;;2.78;2.13;;;;;;;;;;5018399;28;20057;-76
2022/06/30 03:11:29;;;;;;;2.85;2.50;;;;;;;;;;5021605;28;20036;-76
2022/06/30 03:13:55;;;;;;;8.02;2.10;;;;;;;;;;5015949;28;20037;-75
2022/06/30 03:16:20;;;;;;;2.90;2.20;;;;;;;;;;5016720;28;20068;-76
2022/06/30 03:18:48;;;;;;;1.88;1.60;;;;;;;;;;5023293;28;20091;-76
2022/06/30 03:21:14;;;;;;;2.80;1.73;;;;;;;;;;5014735;28;20033;-76
2022/06/30 03:23:39;;;;;;;2.80;1.95;;;;;;;;;;5013530;28;20041;-75
2022/06/30 03:26:07;;;;;;;3.25;2.30;;;;;;;;;;5016094;28;20029;-76
2022/06/30 03:28:32;;;;;;;2.47;2.30;;;;;;;;;;5013074;28;20033;-75
2022/06/30 03:30:58;;;;;;;1.83;1.67;;;;;;;;;;5013944;28;20045;-76
2022/06/30 03:33:24;;;;;;;2.83;2.05;;;;;;;;;;5013330;28;20448;-75
2022/06/30 03:35:50;;;;;;;2.25;2.05;;;;;;;;;;5017182;28;20022;-76
2022/06/30 03:38:15;;;;;;;2.05;1.85;;;;;;;;;;4996296;28;20065;-76
2022/06/30 03:40:41;;;;;;;4.47;1.65;;;;;;;;;;5013852;28;20044;-75
2022/06/30 03:43:06;;;;;;;2.92;1.80;;;;;;;;;;5013970;28;20030;-75
2022/06/30 03:45:35;;;;;;;1.00;0.98;;;;;;;;;;5013629;28;20129;-75
2022/06/30 03:48:04;;;;;;;3.80;2.15;;;;;;;;;;5013486;28;20038;-75
2022/06/30 03:50:30;;;;;;;3.00;1.98;;;;;;;;;;5001234;28;20030;-75
2022/06/30 03:52:59;;;;;;;2.67;2.03;;;;;;;;;;5013453;28;20064;-75
2022/06/30 03:55:25;;;;;;;2.25;2.08;;;;;;;;;;5013780;28;20025;-76
2022/06/30 03:57:50;;;;;;;2.05;1.85;;;;;;;;;;5013527;28;20040;-76
2022/06/30 04:00:16;;;;;;;3.13;2.78;;;;;;;;;;5012969;28;20324;-75
2022/06/30 04:02:43;;;;;;;2.95;2.38;;;;;;;;;;5012708;28;20104;-76
2022/06/30 04:05:11;;;;;;;2.90;2.17;;;;;;;;;;5017280;28;20034;-77
2022/06/30 04:07:43;;;;;;;5.97;3.05;;;;;;;;;;5016521;28;20092;-75
2022/06/30 04:10:10;;;;;;;3.35;2.60;;;;;;;;;;5016165;28;20088;-75
2022/06/30 04:12:35;;;;;;;2.35;1.58;;;;;;;;;;5018839;28;20080;-75
2022/06/30 04:15:03;;;;;;;3.65;3.22;;;;;;;;;;5016455;28;20042;-75
2022/06/30 04:17:29;;;;;;;4.38;1.92;;;;;;;;;;5021810;28;20093;-75
2022/06/30 04:19:56;;;;;;;6.95;2.63;;;;;;;;;;5016728;28;20072;-75
2022/06/30 04:22:22;;;;;;;2.15;1.98;;;;;;;;;;5020244;28;20602;-75
2022/06/30 04:24:47;;;;;;;2.17;1.98;;;;;;;;;;5015810;28;20034;-75
2022/06/30 04:27:17;;;;;;;3.45;2.15;;;;;;;;;;5025025;28;20351;-75
2022/06/30 04:29:43;;;;;;;3.25;2.65;;;;;;;;;;5010866;28;20045;-76
2022/06/30 04:34:52;;;;;;;1.30;1.13;;;;;;;;;;5016611;28;20425;-75
2022/06/30 04:37:17;;;;;;;2.25;1.85;;;;;;;;;;5016641;28;20022;-75
2022/06/30 04:39:43;;;;;;;4.28;2.08;;;;;;;;;;5018850;28;20473;-76
2022/06/30 04:42:10;;;;;;;3.03;2.50;;;;;;;;;;5017433;28;20117;-76
2022/06/30 04:44:36;;;;;;;2.45;2.25;;;;;;;;;;5022106;28;20034;-75
2022/06/30 04:47:04;;;;;;;4.75;2.88;;;;;;;;;;5021376;28;20163;-75
2022/06/30 04:49:32;;;;;;;3.55;2.53;;;;;;;;;;5016565;28;20080;-75
2022/06/30 04:51:59;;;;;;;3.42;2.45;;;;;;;;;;5016449;28;20037;-75
2022/06/30 04:54:25;;;;;;;1.70;1.60;;;;;;;;;;5016188;28;20029;-75
2022/06/30 04:56:50;;;;;;;2.67;2.47;;;;;;;;;;5017572;28;20176;-74
2022/06/30 04:59:16;;;;;;;2.65;2.30;;;;;;;;;;5015891;28;20112;-75
2022/06/30 05:01:41;;;;;;;3.88;1.90;;;;;;;;;;5016318;28;20040;-76
2022/06/30 05:04:07;;;;;;;2.97;2.72;;;;;;;;;;5019551;28;20029;-75
2022/06/30 05:06:37;;;;;;;2.55;1.80;;;;;;;;;;5015658;28;20025;-76
2022/06/30 05:09:02;;;;;;;4.32;2.92;;;;;;;;;;5016986;28;20021;-75
2022/06/30 05:11:27;;;;;;;2.72;1.83;;;;;;;;;;5015339;28;20044;-76
2022/06/30 05:13:58;;;;;;;4.70;3.05;;;;;;;;;;5025482;28;20029;-75
2022/06/30 05:16:23;;;;;;;3.72;2.08;;;;;;;;;;5015704;28;20030;-76
2022/06/30 05:18:48;;;;;;;7.93;3.55;;;;;;;;;;5018043;28;20172;-75
2022/06/30 05:21:14;;;;;;;1.83;1.73;;;;;;;;;;5015928;28;20033;-76
2022/06/30 05:26:28;;;;;;;2.25;1.65;;;;;;;;;;5016093;28;20018;-76
2022/06/30 05:26:33;;;;;;;2.08;1.90;;;;;;;;;;5018380;28;20071;-75
2022/06/30 05:28:59;;;;;;;2.80;2.45;;;;;;;;;;5022481;28;20045;-75
2022/06/30 05:31:24;;;;;;;2.80;2.22;;;;;;;;;;5016241;28;20179;-75
2022/06/30 05:33:49;;;;;;;8.43;3.08;;;;;;;;;;5016178;28;20073;-75
2022/06/30 05:36:15;;;;;;;4.85;2.28;;;;;;;;;;5017122;28;20028;-75
2022/06/30 05:38:42;;;;;;;2.95;1.73;;;;;;;;;;5019392;28;20125;-75
2022/06/30 05:41:07;;;;;;;2.88;2.13;;;;;;;;;;5012185;28;20025;-76
2022/06/30 05:43:33;;;;;;;3.78;2.78;;;;;;;;;;5019606;28;20041;-76
2022/06/30 05:45:58;;;;;;;12.23;1.70;;;;;;;;;;5014214;28;20034;-76
2022/06/30 05:48:23;;;;;;;2.17;1.67;;;;;;;;;;5014878;28;20037;-76
2022/06/30 05:50:51;;;;;;;2.65;2.45;;;;;;;;;;5020256;28;20100;-75
2022/06/30 05:53:17;;;;;;;2.00;1.80;;;;;;;;;;5014899;28;20052;-76
2022/06/30 05:55:45;;;;;;;2.65;1.90;;;;;;;;;;5014662;28;20431;-76
2022/06/30 05:58:11;;;;;;;3.83;2.42;;;;;;;;;;5030079;28;20022;-76
2022/06/30 06:00:36;;;;;;;2.13;1.92;;;;;;;;;;5017812;28;20406;-76
2022/06/30 06:03:02;;;;;;;2.17;1.38;;;;;;;;;;5014093;28;20105;-75
2022/06/30 06:05:28;;;;;;;2.47;2.13;;;;;;;;;;5013767;28;20036;-76
2022/06/30 06:07:56;;;;;;;12.30;4.35;;;;;;;;;;5015395;28;20108;-77
2022/06/30 06:10:21;;;;;;;2.42;1.83;;;;;;;;;;5020377;28;20030;-77
2022/06/30 06:12:47;;;;;;;2.60;1.88;;;;;;;;;;4995749;28;20089;-77
2022/06/30 06:15:15;;;;;;;2.13;1.65;;;;;;;;;;5014235;28;20462;-76
2022/06/30 06:17:41;;;;;;;2.00;1.45;;;;;;;;;;5015834;28;20033;-76
2022/06/30 06:20:07;;;;;;;3.30;2.80;;;;;;;;;;5013480;28;20109;-76
2022/06/30 06:22:32;;;;;;;3.78;2.25;;;;;;;;;;4985486;28;20041;-76
2022/06/30 06:24:58;;;;;;;9.57;2.95;;;;;;;;;;5018172;28;20026;-77
2022/06/30 06:27:25;;;;;;;3.00;2.33;;;;;;;;;;5014763;28;20029;-77
2022/06/30 06:29:51;;;;;;;3.58;2.17;;;;;;;;;;5013687;28;20025;-77
2022/06/30 06:32:16;;;;;;;2.88;2.50;;;;;;;;;;5014152;28;20461;-76
2022/06/30 06:34:41;;;;;;;2.72;1.70;;;;;;;;;;5015567;28;20033;-77
2022/06/30 06:37:07;;;;;;;1.75;1.55;;;;;;;;;;5015479;28;20026;-76
2022/06/30 06:39:33;;;;;;;2.85;1.67;;;;;;;;;;5001163;28;20053;-76
2022/06/30 06:41:58;;;;;;;11.05;2.75;;;;;;;;;;5015444;28;20029;-77
2022/06/30 06:44:23;;;;;;;3.25;2.03;;;;;;;;;;5014686;28;20030;-77
2022/06/30 06:46:51;;;;;;;1.92;1.75;;;;;;;;;;5018241;28;20041;-77
2022/06/30 06:49:19;;;;;;;2.38;1.77;;;;;;;;;;5013501;28;20035;-77
2022/06/30 06:51:44;;;;;;;1.88;1.67;;;;;;;;;;5023456;28;20104;-77
2022/06/30 06:54:14;;;;;;;1.30;1.20;;;;;;;;;;5016082;28;20116;-77
2022/06/30 06:56:40;;;;;;;7.15;1.25;;;;;;;;;;5016352;28;20045;-76
2022/06/30 06:59:05;;;;;;;3.00;1.23;;;;;;;;;;5004480;28;20030;-76
2022/06/30 07:01:31;;;;;;;1.70;1.08;;;;;;;;;;5012982;28;20029;-76
2022/06/30 07:03:56;;;;;;;1.13;0.80;;;;;;;;;;5009624;28;20064;-77
2022/06/30 07:06:24;;;;;;;1.65;1.20;;;;;;;;;;5012993;28;20024;-76
2022/06/30 07:08:52;;;;;;;3.20;2.80;;;;;;;;;;5014253;28;20030;-76
2022/06/30 07:11:17;;;;;;;11.13;3.42;;;;;;;;;;5013924;28;20017;-76
2022/06/30 07:13:43;;;;;;;10.45;3.15;;;;;;;;;;5015990;28;20032;-76
2022/06/30 07:16:08;;;;;;;2.10;1.17;;;;;;;;;;5014727;28;20030;-76
2022/06/30 07:18:33;;;;;;;2.30;1.20;;;;;;;;;;5009941;28;20018;-77
2022/06/30 07:20:59;;;;;;;1.23;0.93;;;;;;;;;;5012361;28;20112;-77
2022/06/30 07:23:24;;;;;;;1.92;0.95;;;;;;;;;;5015795;28;20424;-77
2022/06/30 07:25:52;;;;;;;1.63;0.75;;;;;;;;;;5021816;28;20339;-77
2022/06/30 07:28:17;;;;;;;4.00;1.50;;;;;;;;;;5021073;28;20028;-77
2022/06/30 07:30:45;;;;;;;1.33;1.10;;;;;;;;;;5017508;28;20037;-77
2022/06/30 07:33:13;;;;;;;1.55;1.40;;;;;;;;;;5012308;28;20176;-76
2022/06/30 07:35:38;;;;;;;4.38;1.58;;;;;;;;;;5013948;28;20636;-77
2022/06/30 07:38:06;;;;;;;2.10;1.40;;;;;;;;;;5022127;28;20026;-77
2022/06/30 07:40:31;;;;;;;0.52;0.52;;;;;;;;;;5013037;28;20026;-76
2022/06/30 07:42:59;;;;;;;1.38;1.27;;;;;;;;;;5018167;28;20083;-77
2022/06/30 07:45:27;;;;;;;2.63;2.03;;;;;;;;;;5017138;28;20029;-77
2022/06/30 07:47:57;;;;;;;5.25;2.53;;;;;;;;;;5015689;28;20030;-77
2022/06/30 07:50:24;;;;;;;3.60;1.83;;;;;;;;;;5012582;28;20046;-77
2022/06/30 07:52:50;;;;;;;1.83;1.27;;;;;;;;;;5013181;28;20628;-79
2022/06/30 07:55:15;;;;;;;3.28;1.92;;;;;;;;;;5012186;28;20029;-78
2022/06/30 07:57:46;;;;;;;0.70;0.70;;;;;;;;;;5012448;28;20029;-77
2022/06/30 08:00:13;;;;;;;1.38;1.15;;;;;;;;;;5016560;28;20406;-78
2022/06/30 08:02:40;;;;;;;0.88;0.88;;;;;;;;;;5011421;28;20028;-77
2022/06/30 08:05:07;;;;;;;1.33;1.23;;;;;;;;;;5008503;28;20077;-77
2022/06/30 08:07:33;;;;;;;0.98;0.85;;;;;;;;;;5013644;28;20057;-77
2022/06/30 08:09:59;;;;;;;0.88;0.85;;;;;;;;;;5014333;28;20060;-78
2022/06/30 08:12:26;;;;;;;1.67;1.20;;;;;;;;;;5015647;28;20024;-75
2022/06/30 08:14:52;;;;;;;2.88;1.80;;;;;;;;;;5015276;28;20594;-77
2022/06/30 08:17:19;;;;;;;7.95;1.38;;;;;;;;;;5013217;28;20050;-76
2022/06/30 08:19:48;;;;;;;0.73;0.73;;;;;;;;;;5014380;28;20037;-76
2022/06/30 08:22:16;;;;;;;2.83;2.53;;;;;;;;;;5012844;28;20032;-75
2022/06/30 08:24:43;;;;;;;2.33;0.68;;;;;;;;;;5013962;28;20461;-77
2022/06/30 08:27:08;;;;;;;0.82;0.80;;;;;;;;;;5017081;28;20034;-76
2022/06/30 08:29:37;;;;;;;0.85;0.80;;;;;;;;;;5015090;28;20041;-76
2022/06/30 08:32:03;;;;;;;1.15;0.88;;;;;;;;;;5015162;28;20026;-76
2022/06/30 08:34:31;;;;;;;0.80;0.80;;;;;;;;;;5011117;28;20026;-78
2022/06/30 08:36:57;;;;;;;1.90;1.27;;;;;;;;;;5010669;28;20134;-78
2022/06/30 08:42:10;;;;;;;2.03;1.42;;;;;;;;;;5013111;28;20045;-77
2022/06/30 08:44:37;;;;;;;0.60;0.60;;;;;;;;;;5010521;28;20026;-77
2022/06/30 08:47:04;;;;;;;0.63;0.63;;;;;;;;;;5013003;28;20052;-78
2022/06/30 08:49:31;;;;;;;1.23;1.15;;;;;;;;;;4996337;28;20026;-77
2022/06/30 08:51:59;;;;;;;0.77;0.77;;;;;;;;;;5015377;28;20026;-80
2022/06/30 08:54:28;;;;;;;0.75;0.70;;;;;;;;;;5016507;28;20080;-78
2022/06/30 08:56:58;;;;;;;1.48;1.25;;;;;;;;;;5017611;28;20151;-78
2022/06/30 08:59:24;;;;;;;1.23;0.98;;;;;;;;;;5017384;28;20049;-78
2022/06/30 09:01:54;;;;;;;3.10;1.58;;;;;;;;;;5015971;28;20212;-78
2022/06/30 09:04:22;;;;;;;1.20;1.20;;;;;;;;;;5027108;28;20029;-78
2022/06/30 09:06:50;;;;;;;3.58;1.88;;;;;;;;;;5019234;28;20036;-78
2022/06/30 09:09:16;;;;;;;1.45;1.08;;;;;;;;;;5017286;28;20156;-77
2022/06/30 09:11:56;;;;;;;1.23;1.13;;;;;;;;;;5020074;28;20034;-78
2022/06/30 09:14:31;;;;;;;0.95;0.93;;;;;;;;;;5018327;28;20026;-78
2022/06/30 09:16:58;;;;;;;1.10;1.00;;;;;;;;;;5012151;28;20107;-78
2022/06/30 09:19:25;;;;;;;12.60;1.17;;;;;;;;;;5014888;28;20041;-78
2022/06/30 09:22:04;;;;;;;1.90;1.50;;;;;;;;;;5015327;28;20026;-78
2022/06/30 09:24:36;;;;;;;0.98;0.98;;;;;;;;;;5015844;28;20038;-80
2022/06/30 09:27:13;;;;;;;2.17;1.42;;;;;;;;;;5011293;28;20033;-78
2022/06/30 09:29:49;;;;;;;6.70;1.45;;;;;;;;;;5016532;28;20091;-77
2022/06/30 09:32:15;;;;;;;1.13;1.00;;;;;;;;;;5027079;28;20041;-77
2022/06/30 09:34:42;;;;;;;1.10;1.00;;;;;;;;;;5032365;28;20034;-77
2022/06/30 09:37:21;;;;;;;1.77;1.23;;;;;;;;;;5032417;28;20041;-76
2022/06/30 09:39:47;;;;;;;1.42;0.60;;;;;;;;;;4995297;28;20022;-77
2022/06/30 09:42:15;;;;;;;0.70;0.70;;;;;;;;;;5016770;28;20481;-77
2022/06/30 09:44:42;;;;;;;0.77;0.70;;;;;;;;;;5019720;28;20033;-78
2022/06/30 09:47:08;;;;;;;1.48;0.82;;;;;;;;;;5014382;28;20134;-77
2022/06/30 09:49:34;;;;;;;0.93;0.80;;;;;;;;;;5016678;28;20037;-78
2022/06/30 09:52:04;;;;;;;0.77;0.77;;;;;;;;;;5026566;28;20409;-78
2022/06/30 09:54:35;;;;;;;1.42;1.15;;;;;;;;;;5020040;28;20021;-78
2022/06/30 09:57:06;;;;;;;1.35;0.90;;;;;;;;;;5004306;28;20115;-78
2022/06/30 09:59:35;;;;;;;1.17;0.40;;;;;;;;;;5013614;28;20025;-77
2022/06/30 10:02:06;;;;;;;1.27;0.90;;;;;;;;;;5009881;28;20112;-77
2022/06/30 10:04:31;;;;;;;0.60;0.60;;;;;;;;;;5021656;28;20439;-77
2022/06/30 10:06:57;;;;;;;0.77;0.73;;;;;;;;;;5011808;28;20061;-77
2022/06/30 10:09:23;;;;;;;1.38;1.05;;;;;;;;;;5007529;28;20473;-76
2022/06/30 10:11:50;;;;;;;0.85;0.75;;;;;;;;;;5013930;28;20097;-78
2022/06/30 10:14:16;;;;;;;2.03;1.00;;;;;;;;;;5016359;28;20033;-78
2022/06/30 10:16:43;;;;;;;1.33;1.17;;;;;;;;;;5017044;28;20552;-78
2022/06/30 10:19:14;;;;;;;1.42;1.25;;;;;;;;;;5014819;28;20139;-78
2022/06/30 10:21:41;;;;;;;5.78;1.35;;;;;;;;;;5015811;28;20053;-77
2022/06/30 10:24:08;;;;;;;1.90;1.65;;;;;;;;;;5013993;28;20037;-77
2022/06/30 10:29:18;;;;;;;1.20;1.10;;;;;;;;;;5015549;28;20045;-77
2022/06/30 10:31:54;;;;;;;2.25;0.80;;;;;;;;;;5019801;28;20029;-77
2022/06/30 10:34:24;;;;;;;3.00;1.67;;;;;;;;;;5013560;28;20077;-77
2022/06/30 10:37:10;;;;;;;0.90;0.82;;;;;;;;;;5024765;28;20040;-77
2022/06/30 10:39:46;;;;;;;0.73;0.55;;;;;;;;;;5013512;28;20030;-78
2022/06/30 10:42:45;;;;;;;8.88;2.42;;;;;;;;;;5012626;28;20034;-77
2022/06/30 10:45:30;;;;;;;3.00;2.67;;;;;;;;;;5019323;28;20034;-77
2022/06/30 10:47:56;;;;;;;3.22;1.52;;;;;;;;;;4996740;28;20065;-78
2022/06/30 10:50:35;;;;;;;4.25;1.00;;;;;;;;;;5013346;28;20077;-78
2022/06/30 10:53:02;;;;;;;9.80;1.30;;;;;;;;;;5018672;28;20026;-77
2022/06/30 10:55:28;;;;;;;1.05;0.98;;;;;;;;;;5014207;28;20030;-77
2022/06/30 10:58:06;;;;;;;6.15;1.77;;;;;;;;;;4998463;28;20117;-77
2022/06/30 11:00:45;;;;;;;0.65;0.65;;;;;;;;;;5020101;28;20087;-76
2022/06/30 11:03:29;;;;;;;0.75;0.73;;;;;;;;;;5014102;28;20037;-76
2022/06/30 11:05:54;;;;;;;1.80;1.52;;;;;;;;;;5016742;28;20425;-77
2022/06/30 11:11:22;;;;;;;6.30;1.92;;;;;;;;;;5014118;28;20040;-77
2022/06/30 11:14:13;;;;;;;0.80;0.80;;;;;;;;;;5017579;28;20105;-77
2022/06/30 11:16:39;;;;;;;8.93;1.23;;;;;;;;;;5013271;28;20026;-76
2022/06/30 11:19:13;;;;;;;1.70;1.20;;;;;;;;;;5013408;28;20022;-77
2022/06/30 11:21:44;;;;;;;0.93;0.85;;;;;;;;;;5018663;28;20034;-77
2022/06/30 11:24:11;;;;;;;7.55;1.83;;;;;;;;;;5012274;28;20096;-77
2022/06/30 11:29:23;;;;;;;2.53;1.90;;;;;;;;;;5008439;28;20036;-77
2022/06/30 11:31:50;;;;;;;1.30;0.88;;;;;;;;;;5008853;28;20030;-78
2022/06/30 11:34:18;;;;;;;0.52;0.52;;;;;;;;;;5020357;28;20370;-78
2022/06/30 11:36:44;;;;;;;0.93;0.90;;;;;;;;;;5011761;28;20026;-78
2022/06/30 11:39:17;;;;;;;3.75;3.05;;;;;;;;;;5008609;28;20104;-78
2022/06/30 11:42:01;;;;;;;3.90;2.20;;;;;;;;;;5013288;28;20013;-78
2022/06/30 11:44:38;;;;;;;4.55;3.00;;;;;;;;;;5012807;28;20021;-75
2022/06/30 11:47:07;;;;;;;1.85;0.98;;;;;;;;;;5013673;28;20029;-77
2022/06/30 11:49:52;;;;;;;0.30;0.30;;;;;;;;;;5010904;28;20045;-76
2022/06/30 11:52:20;;;;;;;1.95;1.17;;;;;;;;;;5015727;28;20025;-77
2022/06/30 11:54:53;;;;;;;0.47;0.47;;;;;;;;;;5012402;28;20033;-76
2022/06/30 11:57:21;;;;;;;2.35;1.85;;;;;;;;;;5013991;28;20060;-77
2022/06/30 11:59:52;;;;;;;9.27;2.05;;;;;;;;;;5012124;28;20056;-76
2022/06/30 12:02:18;;;;;;;0.68;0.60;;;;;;;;;;5011609;28;20037;-76
2022/06/30 12:04:43;;;;;;;8.02;1.55;;;;;;;;;;5012264;28;20026;-78
2022/06/30 12:07:11;;;;;;;0.65;0.65;;;;;;;;;;5011650;28;20515;-78
2022/06/30 12:09:38;;;;;;;0.93;0.85;;;;;;;;;;4995532;28;20037;-78
2022/06/30 12:12:06;;;;;;;1.52;1.20;;;;;;;;;;5013270;28;20026;-78
2022/06/30 12:14:34;;;;;;;1.05;0.95;;;;;;;;;;5012588;28;20129;-78
2022/06/30 12:16:59;;;;;;;1.92;1.77;;;;;;;;;;5015545;28;20030;-79
2022/06/30 12:19:25;;;;;;;1.75;1.05;;;;;;;;;;5012077;28;20036;-78
2022/06/30 12:21:52;;;;;;;1.73;1.27;;;;;;;;;;5015562;28;20025;-79
2022/06/30 12:24:18;;;;;;;0.98;0.93;;;;;;;;;;5012000;28;20091;-75
2022/06/30 12:26:58;;;;;;;1.10;1.10;;;;;;;;;;5018494;28;20025;-75
2022/06/30 12:29:25;;;;;;;1.07;0.97;;;;;;;;;;5015725;28;20032;-75
2022/06/30 12:32:01;;;;;;;2.72;1.40;;;;;;;;;;5019813;28;20026;-76
2022/06/30 12:34:27;;;;;;;1.25;1.08;;;;;;;;;;5014020;28;20195;-76
2022/06/30 12:36:58;;;;;;;34.65;6.30;;;;;;;;;;5019764;28;20458;-75
2022/06/30 12:39:24;;;;;;;3.03;1.42;;;;;;;;;;5017032;28;20327;-76
2022/06/30 12:41:59;;;;;;;3.92;1.88;;;;;;;;;;5017242;28;20049;-75
2022/06/30 12:44:34;;;;;;;1.25;1.15;;;;;;;;;;5019793;28;20101;-76
2022/06/30 12:47:10;;;;;;;12.18;4.30;;;;;;;;;;5014983;28;20044;-77
2022/06/30 12:49:37;;;;;;;15.88;4.43;;;;;;;;;;5015589;28;20030;-78
2022/06/30 12:52:19;;;;;;;1.23;1.13;;;;;;;;;;5016006;28;20034;-78
2022/06/30 12:54:58;;;;;;;3.63;1.10;;;;;;;;;;5014385;28;20336;-79
2022/06/30 12:57:25;;;;;;;1.00;0.60;;;;;;;;;;5015079;28;20025;-78
2022/06/30 12:59:54;;;;;;;2.45;1.25;;;;;;;;;;5016960;28;20049;-76
2022/06/30 13:02:23;;;;;;;1.33;1.17;;;;;;;;;;5013115;28;20447;-78
2022/06/30 13:04:55;;;;;;;0.50;0.50;;;;;;;;;;5013967;28;20053;-78
2022/06/30 13:07:22;;;;;;;0.63;0.63;;;;;;;;;;5016130;28;20025;-76
2022/06/30 13:09:49;;;;;;;1.15;1.05;;;;;;;;;;5014959;28;20117;-78
2022/06/30 13:12:15;;;;;;;0.73;0.73;;;;;;;;;;5021971;28;20447;-77
2022/06/30 13:14:41;;;;;;;1.73;1.35;;;;;;;;;;5012878;28;20117;-78
2022/06/30 13:17:08;;;;;;;2.40;1.20;;;;;;;;;;5016259;28;20033;-76
2022/06/30 13:19:36;;;;;;;0.70;0.70;;;;;;;;;;5014703;28;20100;-79
2022/06/30 13:22:02;;;;;;;0.70;0.70;;;;;;;;;;5013562;28;20026;-78
2022/06/30 13:24:28;;;;;;;2.05;1.00;;;;;;;;;;5016477;28;20064;-78
2022/06/30 13:27:01;;;;;;;0.80;0.80;;;;;;;;;;5015113;28;20076;-78
2022/06/30 13:29:27;;;;;;;1.98;1.13;;;;;;;;;;5000770;28;20109;-79
2022/06/30 13:31:52;;;;;;;0.57;0.57;;;;;;;;;;5013496;28;20112;-79
2022/06/30 13:34:18;;;;;;;0.40;0.40;;;;;;;;;;5009664;28;20026;-79
2022/06/30 13:36:47;;;;;;;1.67;0.93;;;;;;;;;;5011523;28;20030;-78
2022/06/30 13:39:12;;;;;;;0.73;0.70;;;;;;;;;;5014148;28;20022;-80
2022/06/30 13:41:42;;;;;;;1.45;1.17;;;;;;;;;;4997176;28;20022;-78
2022/06/30 13:44:08;;;;;;;1.27;0.80;;;;;;;;;;5015343;28;20060;-77
2022/06/30 13:46:36;;;;;;;2.17;0.88;;;;;;;;;;5013797;28;20026;-78
2022/06/30 13:49:06;;;;;;;2.53;1.05;;;;;;;;;;4989671;28;20052;-79
2022/06/30 13:51:34;;;;;;;0.25;0.25;;;;;;;;;;5014799;28;20046;-77
2022/06/30 13:53:59;;;;;;;0.50;0.50;;;;;;;;;;5002232;28;20354;-78
2022/06/30 13:56:27;;;;;;;1.08;0.98;;;;;;;;;;5015203;28;20032;-78
2022/06/30 13:58:55;;;;;;;0.40;0.40;;;;;;;;;;5016751;28;20095;-78
2022/06/30 14:01:21;;;;;;;0.80;0.80;;;;;;;;;;5014204;28;20021;-79
2022/06/30 14:03:47;;;;;;;0.90;0.90;;;;;;;;;;4993957;28;20439;-79
2022/06/30 14:06:13;;;;;;;1.02;0.70;;;;;;;;;;5014414;28;20410;-76
2022/06/30 14:08:38;;;;;;;1.67;1.08;;;;;;;;;;5015811;28;20029;-77
2022/06/30 14:11:04;;;;;;;0.73;0.63;;;;;;;;;;5014402;28;20032;-78
2022/06/30 14:13:32;;;;;;;0.40;0.40;;;;;;;;;;5020925;28;20029;-79
2022/06/30 14:16:00;;;;;;;4.55;1.45;;;;;;;;;;5014851;28;20017;-78
2022/06/30 14:18:26;;;;;;;0.80;0.50;;;;;;;;;;5015509;28;20036;-79
2022/06/30 14:20:51;;;;;;;2.47;0.82;;;;;;;;;;5014518;28;20022;-79
2022/06/30 14:23:17;;;;;;;2.70;1.58;;;;;;;;;;4997466;28;20030;-78
2022/06/30 14:25:45;;;;;;;0.77;0.77;;;;;;;;;;5015725;28;20148;-77
2022/06/30 14:28:12;;;;;;;0.47;0.47;;;;;;;;;;5014030;28;20021;-79
2022/06/30 14:30:37;;;;;;;0.20;0.20;;;;;;;;;;5014685;28;20113;-78
2022/06/30 14:33:03;;;;;;;0.63;0.57;;;;;;;;;;5014177;28;20587;-79
2022/06/30 14:35:31;;;;;;;0.98;0.75;;;;;;;;;;5015481;28;20030;-78
2022/06/30 14:37:57;;;;;;;1.60;1.30;;;;;;;;;;4998113;28;20175;-79
2022/06/30 14:40:22;;;;;;;0.50;0.50;;;;;;;;;;5015000;28;20518;-79
2022/06/30 14:42:48;;;;;;;0.50;0.50;;;;;;;;;;5014152;28;20025;-79
2022/06/30 14:45:19;;;;;;;0.85;0.82;;;;;;;;;;5000127;28;20112;-79
2022/06/30 14:47:48;;;;;;;0.83;0.80;;;;;;;;;;5015039;28;20033;-79
2022/06/30 14:50:16;;;;;;;0.60;0.60;;;;;;;;;;5014796;28;20037;-79
2022/06/30 14:52:45;;;;;;;1.00;0.82;;;;;;;;;;5016307;28;20097;-78
2022/06/30 14:55:13;;;;;;;2.33;1.13;;;;;;;;;;5023090;28;20040;-79
2022/06/30 14:57:41;;;;;;;1.95;1.25;;;;;;;;;;5006382;28;20564;-78
2022/06/30 15:00:08;;;;;;;1.15;0.70;;;;;;;;;;5026245;28;20091;-79
2022/06/30 15:02:34;;;;;;;0.50;0.50;;;;;;;;;;5033889;28;20035;-79
2022/06/30 15:05:00;;;;;;;1.05;0.85;;;;;;;;;;5031862;28;20116;-79